sensor_id;sensor_type;location;lat;lon;timestamp;temperature;humidity
11925;DHT22;6022;48.768;18.608;2023-02-18T00:01:15;6.10;99.90
11925;DHT22;6022;48.768;18.608;2023-02-18T00:03:44;6.10;99.90
11925;DHT22;6022;48.768;18.608;2023-02-18T00:06:20;6.30;99.90
11925;DHT22;6022;48.768;18.608;2023-02-18T00:08:50;6.40;99.90
11925;DHT22;6022;48.768;18.608;2023-02-18T00:11:19;6.30;99.90
11925;DHT22;6022;48.768;18.608;2023-02-18T00:13:56;6.40;99.90
11925;DHT22;6022;48.768;18.608;2023-02-18T00:16:26;6.50;99.90
11925;DHT22;6022;48.768;18.608;2023-02-18T00:18:55;6.50;99.90
11925;DHT22;6022;48.768;18.608;2023-02-18T00:21:25;6.60;99.90
11925;DHT22;6022;48.768;18.608;2023-02-18T00:23:53;6.60;99.90
11925;DHT22;6022;48.768;18.608;2023-02-18T00:26:21;6.60;99.90
11925;DHT22;6022;48.768;18.608;2023-02-18T00:28:49;6.60;99.90
11925;DHT22;6022;48.768;18.608;2023-02-18T00:31:22;6.70;99.90
11925;DHT22;6022;48.768;18.608;2023-02-18T00:33:51;6.70;99.90
11925;DHT22;6022;48.768;18.608;2023-02-18T00:36:20;6.60;99.90
11925;DHT22;6022;48.768;18.608;2023-02-18T00:38:51;6.60;99.90
11925;DHT22;6022;48.768;18.608;2023-02-18T00:41:24;6.60;99.90
11925;DHT22;6022;48.768;18.608;2023-02-18T00:43:52;6.80;99.90
11925;DHT22;6022;48.768;18.608;2023-02-18T00:46:21;6.50;99.90
11925;DHT22;6022;48.768;18.608;2023-02-18T00:48:56;6.60;99.90
11925;DHT22;6022;48.768;18.608;2023-02-18T00:52:25;6.60;99.90
11925;DHT22;6022;48.768;18.608;2023-02-18T00:55:57;6.60;99.90
11925;DHT22;6022;48.768;18.608;2023-02-18T00:58:26;6.60;99.90
11925;DHT22;6022;48.768;18.608;2023-02-18T01:01:05;6.20;99.90
11925;DHT22;6022;48.768;18.608;2023-02-18T01:03:39;6.20;99.90
11925;DHT22;6022;48.768;18.608;2023-02-18T01:06:10;6.60;99.90
11925;DHT22;6022;48.768;18.608;2023-02-18T01:08:40;6.60;99.90
11925;DHT22;6022;48.768;18.608;2023-02-18T01:11:09;6.60;99.90
11925;DHT22;6022;48.768;18.608;2023-02-18T01:13:43;6.80;99.90
11925;DHT22;6022;48.768;18.608;2023-02-18T01:16:11;6.50;99.90
11925;DHT22;6022;48.768;18.608;2023-02-18T01:18:42;6.60;99.90
11925;DHT22;6022;48.768;18.608;2023-02-18T01:21:18;6.60;99.90
11925;DHT22;6022;48.768;18.608;2023-02-18T01:23:45;6.80;99.90
11925;DHT22;6022;48.768;18.608;2023-02-18T01:26:13;6.60;99.90
11925;DHT22;6022;48.768;18.608;2023-02-18T01:28:40;6.70;99.90
11925;DHT22;6022;48.768;18.608;2023-02-18T01:31:10;6.60;99.90
11925;DHT22;6022;48.768;18.608;2023-02-18T01:33:39;6.70;99.90
11925;DHT22;6022;48.768;18.608;2023-02-18T01:36:07;6.70;99.90
11925;DHT22;6022;48.768;18.608;2023-02-18T01:38:36;6.70;99.90
11925;DHT22;6022;48.768;18.608;2023-02-18T01:41:04;6.60;99.90
11925;DHT22;6022;48.768;18.608;2023-02-18T01:43:36;6.90;99.90
11925;DHT22;6022;48.768;18.608;2023-02-18T01:46:19;6.80;99.90
11925;DHT22;6022;48.768;18.608;2023-02-18T01:48:55;6.90;99.90
11925;DHT22;6022;48.768;18.608;2023-02-18T01:51:38;6.80;99.90
11925;DHT22;6022;48.768;18.608;2023-02-18T01:54:15;6.90;99.90
11925;DHT22;6022;48.768;18.608;2023-02-18T01:59:49;6.90;99.90
11925;DHT22;6022;48.768;18.608;2023-02-18T02:02:23;7.20;99.90
11925;DHT22;6022;48.768;18.608;2023-02-18T02:04:53;7.00;99.90
11925;DHT22;6022;48.768;18.608;2023-02-18T02:07:23;7.30;99.90
11925;DHT22;6022;48.768;18.608;2023-02-18T02:09:55;6.90;99.90
11925;DHT22;6022;48.768;18.608;2023-02-18T02:15:31;7.10;99.90
11925;DHT22;6022;48.768;18.608;2023-02-18T02:18:31;7.20;99.90
11925;DHT22;6022;48.768;18.608;2023-02-18T02:33:31;6.90;99.90
11925;DHT22;6022;48.768;18.608;2023-02-18T02:36:30;6.80;99.90
11925;DHT22;6022;48.768;18.608;2023-02-18T02:39:25;6.90;99.90
11925;DHT22;6022;48.768;18.608;2023-02-18T02:42:24;7.00;99.90
11925;DHT22;6022;48.768;18.608;2023-02-18T02:45:09;6.90;99.90
11925;DHT22;6022;48.768;18.608;2023-02-18T02:51:29;7.00;99.90
11925;DHT22;6022;48.768;18.608;2023-02-18T02:54:19;6.80;99.90
11925;DHT22;6022;48.768;18.608;2023-02-18T02:56:49;6.90;99.90
11925;DHT22;6022;48.768;18.608;2023-02-18T02:59:19;6.90;99.90
11925;DHT22;6022;48.768;18.608;2023-02-18T03:10:48;7.00;99.90
11925;DHT22;6022;48.768;18.608;2023-02-18T03:22:06;6.90;99.90
11925;DHT22;6022;48.768;18.608;2023-02-18T03:24:46;7.30;99.90
11925;DHT22;6022;48.768;18.608;2023-02-18T03:27:23;7.30;99.90
11925;DHT22;6022;48.768;18.608;2023-02-18T03:30:03;7.30;99.90
11925;DHT22;6022;48.768;18.608;2023-02-18T03:32:38;7.00;99.90
11925;DHT22;6022;48.768;18.608;2023-02-18T03:35:15;7.30;99.90
11925;DHT22;6022;48.768;18.608;2023-02-18T03:37:52;7.40;99.90
11925;DHT22;6022;48.768;18.608;2023-02-18T03:40:28;7.40;99.90
11925;DHT22;6022;48.768;18.608;2023-02-18T03:42:59;7.30;99.90
11925;DHT22;6022;48.768;18.608;2023-02-18T03:45:27;7.50;99.90
11925;DHT22;6022;48.768;18.608;2023-02-18T03:47:55;7.70;99.90
11925;DHT22;6022;48.768;18.608;2023-02-18T03:50:22;7.20;99.90
11925;DHT22;6022;48.768;18.608;2023-02-18T03:52:50;7.70;99.90
11925;DHT22;6022;48.768;18.608;2023-02-18T03:55:17;7.70;99.90
11925;DHT22;6022;48.768;18.608;2023-02-18T03:57:45;7.60;99.90
11925;DHT22;6022;48.768;18.608;2023-02-18T04:00:12;7.70;99.90
11925;DHT22;6022;48.768;18.608;2023-02-18T04:02:40;7.70;99.90
11925;DHT22;6022;48.768;18.608;2023-02-18T04:05:08;7.60;99.90
11925;DHT22;6022;48.768;18.608;2023-02-18T04:07:36;7.70;99.90
11925;DHT22;6022;48.768;18.608;2023-02-18T04:10:04;7.70;99.90
11925;DHT22;6022;48.768;18.608;2023-02-18T04:12:32;7.60;99.90
11925;DHT22;6022;48.768;18.608;2023-02-18T04:15:00;7.60;99.90
11925;DHT22;6022;48.768;18.608;2023-02-18T04:17:27;7.50;99.90
11925;DHT22;6022;48.768;18.608;2023-02-18T04:19:55;7.70;99.90
11925;DHT22;6022;48.768;18.608;2023-02-18T04:22:22;7.70;99.90
11925;DHT22;6022;48.768;18.608;2023-02-18T04:24:49;7.70;99.90
11925;DHT22;6022;48.768;18.608;2023-02-18T04:27:17;7.60;99.90
11925;DHT22;6022;48.768;18.608;2023-02-18T04:29:44;7.60;99.90
11925;DHT22;6022;48.768;18.608;2023-02-18T04:32:12;7.60;99.90
11925;DHT22;6022;48.768;18.608;2023-02-18T04:34:39;7.60;99.90
11925;DHT22;6022;48.768;18.608;2023-02-18T04:37:07;7.40;99.90
11925;DHT22;6022;48.768;18.608;2023-02-18T04:39:34;7.60;99.90
11925;DHT22;6022;48.768;18.608;2023-02-18T04:42:02;7.50;99.90
11925;DHT22;6022;48.768;18.608;2023-02-18T04:44:35;7.30;99.90
11925;DHT22;6022;48.768;18.608;2023-02-18T04:47:04;7.20;99.90
11925;DHT22;6022;48.768;18.608;2023-02-18T04:49:33;7.20;99.90
11925;DHT22;6022;48.768;18.608;2023-02-18T04:52:00;7.50;99.90
11925;DHT22;6022;48.768;18.608;2023-02-18T04:54:28;7.40;99.90
11925;DHT22;6022;48.768;18.608;2023-02-18T04:56:56;7.00;99.90
11925;DHT22;6022;48.768;18.608;2023-02-18T04:59:23;7.20;99.90
11925;DHT22;6022;48.768;18.608;2023-02-18T05:01:51;7.10;99.90
11925;DHT22;6022;48.768;18.608;2023-02-18T05:04:19;7.50;99.90
11925;DHT22;6022;48.768;18.608;2023-02-18T05:06:47;7.30;99.90
11925;DHT22;6022;48.768;18.608;2023-02-18T05:09:15;7.60;99.90
11925;DHT22;6022;48.768;18.608;2023-02-18T05:11:42;7.60;99.90
11925;DHT22;6022;48.768;18.608;2023-02-18T05:14:10;7.70;99.90
11925;DHT22;6022;48.768;18.608;2023-02-18T05:16:37;7.20;99.90
11925;DHT22;6022;48.768;18.608;2023-02-18T05:19:05;7.70;99.90
11925;DHT22;6022;48.768;18.608;2023-02-18T05:21:33;7.30;99.90
11925;DHT22;6022;48.768;18.608;2023-02-18T05:24:00;7.40;99.90
11925;DHT22;6022;48.768;18.608;2023-02-18T05:26:31;7.30;99.90
11925;DHT22;6022;48.768;18.608;2023-02-18T05:28:58;7.40;99.90
11925;DHT22;6022;48.768;18.608;2023-02-18T05:31:26;7.20;99.90
11925;DHT22;6022;48.768;18.608;2023-02-18T05:33:53;7.20;99.90
11925;DHT22;6022;48.768;18.608;2023-02-18T05:36:20;7.10;99.90
11925;DHT22;6022;48.768;18.608;2023-02-18T05:38:48;7.20;99.90
11925;DHT22;6022;48.768;18.608;2023-02-18T05:41:15;7.00;99.90
11925;DHT22;6022;48.768;18.608;2023-02-18T05:43:42;7.10;99.90
11925;DHT22;6022;48.768;18.608;2023-02-18T05:46:29;7.10;99.90
11925;DHT22;6022;48.768;18.608;2023-02-18T05:48:56;6.80;99.90
11925;DHT22;6022;48.768;18.608;2023-02-18T05:51:24;7.00;99.90
11925;DHT22;6022;48.768;18.608;2023-02-18T05:53:51;6.90;99.90
11925;DHT22;6022;48.768;18.608;2023-02-18T05:56:19;6.80;99.90
11925;DHT22;6022;48.768;18.608;2023-02-18T05:58:47;6.90;99.90
11925;DHT22;6022;48.768;18.608;2023-02-18T06:01:14;6.90;99.90
11925;DHT22;6022;48.768;18.608;2023-02-18T06:03:42;6.70;99.90
11925;DHT22;6022;48.768;18.608;2023-02-18T06:06:10;7.00;99.90
11925;DHT22;6022;48.768;18.608;2023-02-18T06:08:38;6.60;99.90
11925;DHT22;6022;48.768;18.608;2023-02-18T06:11:05;6.60;99.90
11925;DHT22;6022;48.768;18.608;2023-02-18T06:13:33;7.10;99.90
11925;DHT22;6022;48.768;18.608;2023-02-18T06:16:01;7.10;99.90
11925;DHT22;6022;48.768;18.608;2023-02-18T06:18:29;6.90;99.90
11925;DHT22;6022;48.768;18.608;2023-02-18T06:20:59;7.20;99.90
11925;DHT22;6022;48.768;18.608;2023-02-18T06:23:28;7.20;99.90
11925;DHT22;6022;48.768;18.608;2023-02-18T06:25:58;7.20;99.90
11925;DHT22;6022;48.768;18.608;2023-02-18T06:28:25;7.40;99.90
11925;DHT22;6022;48.768;18.608;2023-02-18T06:30:55;7.40;99.90
11925;DHT22;6022;48.768;18.608;2023-02-18T06:33:23;7.30;99.90
11925;DHT22;6022;48.768;18.608;2023-02-18T06:35:55;7.50;99.90
11925;DHT22;6022;48.768;18.608;2023-02-18T06:38:28;7.40;99.90
11925;DHT22;6022;48.768;18.608;2023-02-18T06:40:57;7.40;99.90
11925;DHT22;6022;48.768;18.608;2023-02-18T06:43:25;7.20;99.90
11925;DHT22;6022;48.768;18.608;2023-02-18T06:45:52;7.40;99.90
11925;DHT22;6022;48.768;18.608;2023-02-18T06:48:20;7.50;99.90
11925;DHT22;6022;48.768;18.608;2023-02-18T06:50:48;7.60;99.90
11925;DHT22;6022;48.768;18.608;2023-02-18T06:53:29;7.60;99.90
11925;DHT22;6022;48.768;18.608;2023-02-18T06:55:57;7.50;99.90
11925;DHT22;6022;48.768;18.608;2023-02-18T06:58:32;7.70;99.90
11925;DHT22;6022;48.768;18.608;2023-02-18T07:01:03;7.50;99.90
11925;DHT22;6022;48.768;18.608;2023-02-18T07:03:31;7.70;99.90
11925;DHT22;6022;48.768;18.608;2023-02-18T07:05:59;7.70;99.90
11925;DHT22;6022;48.768;18.608;2023-02-18T07:08:27;7.80;99.90
11925;DHT22;6022;48.768;18.608;2023-02-18T07:10:57;7.80;99.90
11925;DHT22;6022;48.768;18.608;2023-02-18T07:13:24;8.00;99.90
11925;DHT22;6022;48.768;18.608;2023-02-18T07:15:52;7.80;99.90
11925;DHT22;6022;48.768;18.608;2023-02-18T07:18:19;7.50;99.90
11925;DHT22;6022;48.768;18.608;2023-02-18T07:20:47;7.80;99.90
11925;DHT22;6022;48.768;18.608;2023-02-18T07:23:14;7.70;99.90
11925;DHT22;6022;48.768;18.608;2023-02-18T07:25:41;7.80;99.90
11925;DHT22;6022;48.768;18.608;2023-02-18T07:28:09;8.00;99.90
11925;DHT22;6022;48.768;18.608;2023-02-18T07:30:37;7.70;99.90
11925;DHT22;6022;48.768;18.608;2023-02-18T07:33:05;7.40;99.90
11925;DHT22;6022;48.768;18.608;2023-02-18T07:35:32;7.50;99.90
11925;DHT22;6022;48.768;18.608;2023-02-18T07:38:01;7.80;99.90
11925;DHT22;6022;48.768;18.608;2023-02-18T07:40:29;7.70;99.90
11925;DHT22;6022;48.768;18.608;2023-02-18T07:42:56;7.60;99.90
11925;DHT22;6022;48.768;18.608;2023-02-18T07:45:23;7.40;99.90
11925;DHT22;6022;48.768;18.608;2023-02-18T07:47:50;7.80;99.90
11925;DHT22;6022;48.768;18.608;2023-02-18T07:50:18;7.70;99.90
11925;DHT22;6022;48.768;18.608;2023-02-18T07:52:45;7.70;99.90
11925;DHT22;6022;48.768;18.608;2023-02-18T07:55:12;7.80;99.90
11925;DHT22;6022;48.768;18.608;2023-02-18T07:57:39;7.80;99.90
11925;DHT22;6022;48.768;18.608;2023-02-18T08:00:23;7.90;99.90
11925;DHT22;6022;48.768;18.608;2023-02-18T08:02:51;7.90;99.90
11925;DHT22;6022;48.768;18.608;2023-02-18T08:05:20;8.00;99.90
11925;DHT22;6022;48.768;18.608;2023-02-18T08:07:48;8.30;99.90
11925;DHT22;6022;48.768;18.608;2023-02-18T08:10:15;8.00;99.90
11925;DHT22;6022;48.768;18.608;2023-02-18T08:12:42;8.10;99.90
11925;DHT22;6022;48.768;18.608;2023-02-18T08:15:10;8.10;99.90
11925;DHT22;6022;48.768;18.608;2023-02-18T08:17:37;8.10;99.90
11925;DHT22;6022;48.768;18.608;2023-02-18T08:20:05;8.20;99.90
11925;DHT22;6022;48.768;18.608;2023-02-18T08:22:33;8.10;99.90
11925;DHT22;6022;48.768;18.608;2023-02-18T08:25:02;8.00;99.90
11925;DHT22;6022;48.768;18.608;2023-02-18T08:27:30;8.10;99.90
11925;DHT22;6022;48.768;18.608;2023-02-18T08:29:58;8.40;99.90
11925;DHT22;6022;48.768;18.608;2023-02-18T08:32:28;8.10;99.90
11925;DHT22;6022;48.768;18.608;2023-02-18T08:34:56;8.20;99.90
11925;DHT22;6022;48.768;18.608;2023-02-18T08:37:23;8.00;99.90
11925;DHT22;6022;48.768;18.608;2023-02-18T08:39:52;8.20;99.90
11925;DHT22;6022;48.768;18.608;2023-02-18T08:42:19;8.10;99.90
11925;DHT22;6022;48.768;18.608;2023-02-18T08:44:47;8.10;99.90
11925;DHT22;6022;48.768;18.608;2023-02-18T08:47:15;8.00;99.90
11925;DHT22;6022;48.768;18.608;2023-02-18T08:50:03;7.70;99.90
11925;DHT22;6022;48.768;18.608;2023-02-18T08:52:32;8.00;99.90
11925;DHT22;6022;48.768;18.608;2023-02-18T08:55:00;8.00;99.90
11925;DHT22;6022;48.768;18.608;2023-02-18T08:57:27;7.70;99.90
11925;DHT22;6022;48.768;18.608;2023-02-18T08:59:57;7.90;99.90
11925;DHT22;6022;48.768;18.608;2023-02-18T09:02:24;7.80;99.90
11925;DHT22;6022;48.768;18.608;2023-02-18T09:04:54;7.90;99.90
11925;DHT22;6022;48.768;18.608;2023-02-18T09:07:21;7.60;99.90
11925;DHT22;6022;48.768;18.608;2023-02-18T09:09:49;7.80;99.90
11925;DHT22;6022;48.768;18.608;2023-02-18T09:12:24;8.00;99.90
11925;DHT22;6022;48.768;18.608;2023-02-18T09:14:52;7.80;99.90
11925;DHT22;6022;48.768;18.608;2023-02-18T09:17:29;8.10;99.90
11925;DHT22;6022;48.768;18.608;2023-02-18T09:19:57;8.30;99.90
11925;DHT22;6022;48.768;18.608;2023-02-18T09:22:25;8.10;99.90
11925;DHT22;6022;48.768;18.608;2023-02-18T09:24:53;8.20;99.90
11925;DHT22;6022;48.768;18.608;2023-02-18T09:27:23;8.10;99.90
11925;DHT22;6022;48.768;18.608;2023-02-18T09:29:51;8.20;99.90
11925;DHT22;6022;48.768;18.608;2023-02-18T09:32:18;8.20;99.90
11925;DHT22;6022;48.768;18.608;2023-02-18T09:35:03;8.00;99.90
11925;DHT22;6022;48.768;18.608;2023-02-18T09:37:31;8.10;99.90
11925;DHT22;6022;48.768;18.608;2023-02-18T09:40:00;8.30;99.90
11925;DHT22;6022;48.768;18.608;2023-02-18T09:42:31;8.20;99.90
11925;DHT22;6022;48.768;18.608;2023-02-18T09:45:04;8.30;99.90
11925;DHT22;6022;48.768;18.608;2023-02-18T09:47:40;8.40;99.90
11925;DHT22;6022;48.768;18.608;2023-02-18T09:52:45;8.70;99.90
11925;DHT22;6022;48.768;18.608;2023-02-18T09:57:52;8.90;99.90
11925;DHT22;6022;48.768;18.608;2023-02-18T10:03:07;8.90;99.90
11925;DHT22;6022;48.768;18.608;2023-02-18T10:06:02;8.90;99.90
11925;DHT22;6022;48.768;18.608;2023-02-18T10:08:38;8.90;99.90
11925;DHT22;6022;48.768;18.608;2023-02-18T10:11:16;9.10;99.90
11925;DHT22;6022;48.768;18.608;2023-02-18T10:13:47;9.30;99.90
11925;DHT22;6022;48.768;18.608;2023-02-18T10:16:19;9.10;99.90
11925;DHT22;6022;48.768;18.608;2023-02-18T10:18:55;9.20;99.90
11925;DHT22;6022;48.768;18.608;2023-02-18T10:21:26;9.10;99.90
11925;DHT22;6022;48.768;18.608;2023-02-18T10:24:06;9.10;99.90
11925;DHT22;6022;48.768;18.608;2023-02-18T10:26:51;9.10;99.90
11925;DHT22;6022;48.768;18.608;2023-02-18T10:29:22;9.40;99.90
11925;DHT22;6022;48.768;18.608;2023-02-18T10:32:06;9.10;99.90
11925;DHT22;6022;48.768;18.608;2023-02-18T10:34:48;9.10;99.90
11925;DHT22;6022;48.768;18.608;2023-02-18T10:49:47;9.30;99.90
11925;DHT22;6022;48.768;18.608;2023-02-18T10:52:18;9.10;99.90
11925;DHT22;6022;48.768;18.608;2023-02-18T10:54:50;9.40;99.90
11925;DHT22;6022;48.768;18.608;2023-02-18T10:57:31;9.40;99.90
11925;DHT22;6022;48.768;18.608;2023-02-18T11:00:18;9.20;99.90
11925;DHT22;6022;48.768;18.608;2023-02-18T11:03:16;9.10;99.90
11925;DHT22;6022;48.768;18.608;2023-02-18T11:05:45;8.90;99.90
11925;DHT22;6022;48.768;18.608;2023-02-18T11:08:19;8.80;99.90
11925;DHT22;6022;48.768;18.608;2023-02-18T11:10:49;9.00;99.90
11925;DHT22;6022;48.768;18.608;2023-02-18T11:13:25;9.00;99.90
11925;DHT22;6022;48.768;18.608;2023-02-18T11:16:04;8.90;99.90
11925;DHT22;6022;48.768;18.608;2023-02-18T11:18:36;8.70;99.90
11925;DHT22;6022;48.768;18.608;2023-02-18T11:21:30;8.90;99.90
11925;DHT22;6022;48.768;18.608;2023-02-18T11:24:15;8.90;99.90
11925;DHT22;6022;48.768;18.608;2023-02-18T11:26:44;9.00;99.90
11925;DHT22;6022;48.768;18.608;2023-02-18T11:29:17;9.40;99.90
11925;DHT22;6022;48.768;18.608;2023-02-18T11:31:50;9.10;99.90
11925;DHT22;6022;48.768;18.608;2023-02-18T11:34:29;9.50;99.90
11925;DHT22;6022;48.768;18.608;2023-02-18T11:37:19;9.40;99.90
11925;DHT22;6022;48.768;18.608;2023-02-18T11:39:53;9.60;99.90
11925;DHT22;6022;48.768;18.608;2023-02-18T11:42:24;9.60;99.90
11925;DHT22;6022;48.768;18.608;2023-02-18T11:44:55;9.50;99.90
11925;DHT22;6022;48.768;18.608;2023-02-18T11:47:33;9.80;99.90
11925;DHT22;6022;48.768;18.608;2023-02-18T11:52:37;9.90;99.90
11925;DHT22;6022;48.768;18.608;2023-02-18T11:55:18;9.80;99.90
11925;DHT22;6022;48.768;18.608;2023-02-18T11:57:50;9.80;99.90
11925;DHT22;6022;48.768;18.608;2023-02-18T12:00:41;9.60;99.90
11925;DHT22;6022;48.768;18.608;2023-02-18T12:06:03;9.80;99.90
11925;DHT22;6022;48.768;18.608;2023-02-18T12:08:50;10.10;99.90
11925;DHT22;6022;48.768;18.608;2023-02-18T12:11:27;9.60;99.90
11925;DHT22;6022;48.768;18.608;2023-02-18T12:13:59;9.70;99.90
11925;DHT22;6022;48.768;18.608;2023-02-18T12:22:04;9.80;99.90
11925;DHT22;6022;48.768;18.608;2023-02-18T12:31:12;9.50;99.90
11925;DHT22;6022;48.768;18.608;2023-02-18T12:34:20;9.50;99.90
11925;DHT22;6022;48.768;18.608;2023-02-18T12:38:21;9.10;99.90
11925;DHT22;6022;48.768;18.608;2023-02-18T12:56:18;9.50;99.90
11925;DHT22;6022;48.768;18.608;2023-02-18T12:58:56;9.20;99.90
11925;DHT22;6022;48.768;18.608;2023-02-18T13:07:59;9.30;99.90
11925;DHT22;6022;48.768;18.608;2023-02-18T13:16:50;9.20;99.90
11925;DHT22;6022;48.768;18.608;2023-02-18T13:22:03;9.50;99.90
11925;DHT22;6022;48.768;18.608;2023-02-18T13:24:38;9.20;99.90
11925;DHT22;6022;48.768;18.608;2023-02-18T13:27:23;9.30;99.90
11925;DHT22;6022;48.768;18.608;2023-02-18T13:30:27;9.00;99.90
11925;DHT22;6022;48.768;18.608;2023-02-18T13:33:42;9.20;99.90
11925;DHT22;6022;48.768;18.608;2023-02-18T13:36:32;9.10;99.90
11925;DHT22;6022;48.768;18.608;2023-02-18T13:39:08;9.20;99.90
11925;DHT22;6022;48.768;18.608;2023-02-18T13:41:40;9.40;99.90
11925;DHT22;6022;48.768;18.608;2023-02-18T13:46:57;9.30;99.90
11925;DHT22;6022;48.768;18.608;2023-02-18T13:49:37;9.10;99.90
11925;DHT22;6022;48.768;18.608;2023-02-18T13:52:17;9.50;99.90
11925;DHT22;6022;48.768;18.608;2023-02-18T13:54:47;9.40;99.90
11925;DHT22;6022;48.768;18.608;2023-02-18T13:57:25;9.30;99.90
11925;DHT22;6022;48.768;18.608;2023-02-18T14:00:03;9.50;99.90
11925;DHT22;6022;48.768;18.608;2023-02-18T14:02:56;9.40;99.90
11925;DHT22;6022;48.768;18.608;2023-02-18T14:05:38;9.50;99.90
11925;DHT22;6022;48.768;18.608;2023-02-18T14:08:13;9.40;99.90
11925;DHT22;6022;48.768;18.608;2023-02-18T14:13:54;9.30;99.90
11925;DHT22;6022;48.768;18.608;2023-02-18T14:22:48;9.30;99.90
11925;DHT22;6022;48.768;18.608;2023-02-18T14:31:04;9.30;99.90
11925;DHT22;6022;48.768;18.608;2023-02-18T14:33:34;9.30;99.90
11925;DHT22;6022;48.768;18.608;2023-02-18T14:36:23;9.40;99.90
11925;DHT22;6022;48.768;18.608;2023-02-18T14:48:15;9.40;99.90
11925;DHT22;6022;48.768;18.608;2023-02-18T14:51:06;9.20;99.90
11925;DHT22;6022;48.768;18.608;2023-02-18T14:53:53;9.30;99.90
11925;DHT22;6022;48.768;18.608;2023-02-18T14:56:26;9.20;99.90
11925;DHT22;6022;48.768;18.608;2023-02-18T14:59:00;9.30;99.90
11925;DHT22;6022;48.768;18.608;2023-02-18T15:01:34;9.10;99.90
11925;DHT22;6022;48.768;18.608;2023-02-18T15:04:03;9.00;99.90
11925;DHT22;6022;48.768;18.608;2023-02-18T15:06:36;9.10;99.90
11925;DHT22;6022;48.768;18.608;2023-02-18T15:09:18;9.10;99.90
11925;DHT22;6022;48.768;18.608;2023-02-18T15:15:34;9.10;99.90
11925;DHT22;6022;48.768;18.608;2023-02-18T15:21:32;9.10;99.90
11925;DHT22;6022;48.768;18.608;2023-02-18T15:28:58;9.20;99.90
11925;DHT22;6022;48.768;18.608;2023-02-18T15:31:34;9.00;99.90
11925;DHT22;6022;48.768;18.608;2023-02-18T15:36:57;8.90;99.90
11925;DHT22;6022;48.768;18.608;2023-02-18T15:40:02;9.00;99.90
11925;DHT22;6022;48.768;18.608;2023-02-18T15:42:35;8.90;99.90
11925;DHT22;6022;48.768;18.608;2023-02-18T15:45:21;9.00;99.90
11925;DHT22;6022;48.768;18.608;2023-02-18T15:47:54;9.00;99.90
11925;DHT22;6022;48.768;18.608;2023-02-18T15:50:29;9.20;99.90
11925;DHT22;6022;48.768;18.608;2023-02-18T15:53:14;9.40;99.90
11925;DHT22;6022;48.768;18.608;2023-02-18T15:55:46;9.50;99.90
11925;DHT22;6022;48.768;18.608;2023-02-18T15:58:33;9.50;99.90
11925;DHT22;6022;48.768;18.608;2023-02-18T16:01:03;9.50;99.90
11925;DHT22;6022;48.768;18.608;2023-02-18T16:03:45;9.70;99.90
11925;DHT22;6022;48.768;18.608;2023-02-18T16:06:26;9.50;99.90
11925;DHT22;6022;48.768;18.608;2023-02-18T16:12:30;9.60;99.90
11925;DHT22;6022;48.768;18.608;2023-02-18T16:15:02;9.50;99.90
11925;DHT22;6022;48.768;18.608;2023-02-18T16:17:31;9.50;99.90
11925;DHT22;6022;48.768;18.608;2023-02-18T16:20:26;9.50;99.90
11925;DHT22;6022;48.768;18.608;2023-02-18T16:23:00;9.70;99.90
11925;DHT22;6022;48.768;18.608;2023-02-18T16:25:49;9.40;99.90
11925;DHT22;6022;48.768;18.608;2023-02-18T16:28:25;9.40;99.90
11925;DHT22;6022;48.768;18.608;2023-02-18T16:30:59;9.40;99.90
11925;DHT22;6022;48.768;18.608;2023-02-18T16:33:48;9.50;99.90
11925;DHT22;6022;48.768;18.608;2023-02-18T16:42:55;9.50;99.90
11925;DHT22;6022;48.768;18.608;2023-02-18T16:46:08;9.60;99.90
11925;DHT22;6022;48.768;18.608;2023-02-18T16:49:03;9.60;99.90
11925;DHT22;6022;48.768;18.608;2023-02-18T16:51:43;9.80;99.90
11925;DHT22;6022;48.768;18.608;2023-02-18T16:54:18;9.70;99.90
11925;DHT22;6022;48.768;18.608;2023-02-18T16:57:21;9.50;99.90
11925;DHT22;6022;48.768;18.608;2023-02-18T17:00:16;9.60;99.90
11925;DHT22;6022;48.768;18.608;2023-02-18T17:02:57;9.70;99.90
11925;DHT22;6022;48.768;18.608;2023-02-18T17:05:33;9.40;99.90
11925;DHT22;6022;48.768;18.608;2023-02-18T17:08:27;9.60;99.90
11925;DHT22;6022;48.768;18.608;2023-02-18T17:11:25;9.50;99.90
11925;DHT22;6022;48.768;18.608;2023-02-18T17:14:15;9.80;99.90
11925;DHT22;6022;48.768;18.608;2023-02-18T17:16:52;9.50;99.90
11925;DHT22;6022;48.768;18.608;2023-02-18T17:20:16;9.70;99.90
11925;DHT22;6022;48.768;18.608;2023-02-18T17:22:46;9.60;99.90
11925;DHT22;6022;48.768;18.608;2023-02-18T17:25:42;9.80;99.90
11925;DHT22;6022;48.768;18.608;2023-02-18T17:28:17;9.80;99.90
11925;DHT22;6022;48.768;18.608;2023-02-18T17:30:49;9.50;99.90
11925;DHT22;6022;48.768;18.608;2023-02-18T17:33:27;9.90;99.90
11925;DHT22;6022;48.768;18.608;2023-02-18T17:38:49;10.00;99.90
11925;DHT22;6022;48.768;18.608;2023-02-18T17:41:20;9.90;99.90
11925;DHT22;6022;48.768;18.608;2023-02-18T17:43:51;9.90;99.90
11925;DHT22;6022;48.768;18.608;2023-02-18T17:46:21;10.00;99.90
11925;DHT22;6022;48.768;18.608;2023-02-18T17:48:51;10.10;99.90
11925;DHT22;6022;48.768;18.608;2023-02-18T17:51:29;10.00;99.90
11925;DHT22;6022;48.768;18.608;2023-02-18T17:53:59;9.80;99.90
11925;DHT22;6022;48.768;18.608;2023-02-18T17:56:27;9.90;99.90
11925;DHT22;6022;48.768;18.608;2023-02-18T17:58:55;10.20;99.90
11925;DHT22;6022;48.768;18.608;2023-02-18T18:01:25;10.00;99.90
11925;DHT22;6022;48.768;18.608;2023-02-18T18:03:53;10.30;99.90
11925;DHT22;6022;48.768;18.608;2023-02-18T18:06:34;10.10;99.90
11925;DHT22;6022;48.768;18.608;2023-02-18T18:09:06;10.40;99.90
11925;DHT22;6022;48.768;18.608;2023-02-18T18:11:34;10.20;99.90
11925;DHT22;6022;48.768;18.608;2023-02-18T18:14:20;10.10;99.90
11925;DHT22;6022;48.768;18.608;2023-02-18T18:16:48;10.10;99.90
11925;DHT22;6022;48.768;18.608;2023-02-18T18:19:15;10.30;99.90
11925;DHT22;6022;48.768;18.608;2023-02-18T18:21:46;10.10;99.90
11925;DHT22;6022;48.768;18.608;2023-02-18T18:28:37;9.90;99.90
11925;DHT22;6022;48.768;18.608;2023-02-18T18:36:54;9.60;99.90
11925;DHT22;6022;48.768;18.608;2023-02-18T18:49:03;9.80;99.90
11925;DHT22;6022;48.768;18.608;2023-02-18T18:51:32;9.70;99.90
11925;DHT22;6022;48.768;18.608;2023-02-18T18:57:22;9.70;99.90
11925;DHT22;6022;48.768;18.608;2023-02-18T19:00:34;9.70;99.90
11925;DHT22;6022;48.768;18.608;2023-02-18T19:03:09;9.60;99.90
11925;DHT22;6022;48.768;18.608;2023-02-18T19:05:39;9.50;99.90
11925;DHT22;6022;48.768;18.608;2023-02-18T19:08:10;9.50;99.90
11925;DHT22;6022;48.768;18.608;2023-02-18T19:10:48;9.30;99.90
11925;DHT22;6022;48.768;18.608;2023-02-18T19:13:30;9.50;99.90
11925;DHT22;6022;48.768;18.608;2023-02-18T19:16:42;9.60;99.90
11925;DHT22;6022;48.768;18.608;2023-02-18T19:19:13;9.50;99.90
11925;DHT22;6022;48.768;18.608;2023-02-18T19:21:44;9.50;99.90
11925;DHT22;6022;48.768;18.608;2023-02-18T19:24:13;9.40;99.90
11925;DHT22;6022;48.768;18.608;2023-02-18T19:27:21;9.40;99.90
11925;DHT22;6022;48.768;18.608;2023-02-18T19:30:23;9.40;99.90
11925;DHT22;6022;48.768;18.608;2023-02-18T19:32:57;9.40;99.90
11925;DHT22;6022;48.768;18.608;2023-02-18T19:35:30;9.30;99.90
11925;DHT22;6022;48.768;18.608;2023-02-18T19:38:33;9.50;99.90